sensor_id;sensor_type;location;lat;lon;timestamp;P1;durP1;ratioP1;P2;durP2;ratioP2
2622;SDS011;1321;48.690;9.022;2023-04-08T00:01:38;23.70;;;21.67;;
2622;SDS011;1321;48.690;9.022;2023-04-08T00:04:06;23.80;;;22.20;;
2622;SDS011;1321;48.690;9.022;2023-04-08T00:06:35;23.80;;;22.00;;
2622;SDS011;1321;48.690;9.022;2023-04-08T00:09:05;25.03;;;23.10;;
2622;SDS011;1321;48.690;9.022;2023-04-08T00:11:33;24.60;;;22.90;;
2622;SDS011;1321;48.690;9.022;2023-04-08T00:14:03;24.90;;;23.00;;
2622;SDS011;1321;48.690;9.022;2023-04-08T00:16:31;24.23;;;22.57;;
2622;SDS011;1321;48.690;9.022;2023-04-08T00:18:59;24.57;;;22.90;;
2622;SDS011;1321;48.690;9.022;2023-04-08T00:21:27;24.40;;;22.80;;
2622;SDS011;1321;48.690;9.022;2023-04-08T00:23:56;24.17;;;22.53;;
2622;SDS011;1321;48.690;9.022;2023-04-08T00:26:26;25.83;;;23.83;;
2622;SDS011;1321;48.690;9.022;2023-04-08T00:28:54;24.47;;;22.80;;
2622;SDS011;1321;48.690;9.022;2023-04-08T00:31:22;25.27;;;23.27;;
2622;SDS011;1321;48.690;9.022;2023-04-08T00:33:50;23.47;;;21.93;;
2622;SDS011;1321;48.690;9.022;2023-04-08T00:36:18;25.53;;;23.67;;
2622;SDS011;1321;48.690;9.022;2023-04-08T00:38:47;24.83;;;22.93;;
2622;SDS011;1321;48.690;9.022;2023-04-08T00:41:15;24.00;;;22.30;;
2622;SDS011;1321;48.690;9.022;2023-04-08T00:43:45;24.73;;;23.07;;
2622;SDS011;1321;48.690;9.022;2023-04-08T00:46:13;23.23;;;21.73;;
2622;SDS011;1321;48.690;9.022;2023-04-08T00:48:42;24.07;;;22.37;;
2622;SDS011;1321;48.690;9.022;2023-04-08T00:51:10;22.63;;;21.13;;
2622;SDS011;1321;48.690;9.022;2023-04-08T00:53:38;21.50;;;20.20;;
2622;SDS011;1321;48.690;9.022;2023-04-08T00:56:06;20.17;;;19.00;;
2622;SDS011;1321;48.690;9.022;2023-04-08T00:58:34;21.30;;;20.10;;
2622;SDS011;1321;48.690;9.022;2023-04-08T01:01:04;21.10;;;19.80;;
2622;SDS011;1321;48.690;9.022;2023-04-08T01:03:38;21.50;;;20.20;;
2622;SDS011;1321;48.690;9.022;2023-04-08T01:06:14;22.03;;;20.53;;
2622;SDS011;1321;48.690;9.022;2023-04-08T01:08:50;21.60;;;20.30;;
2622;SDS011;1321;48.690;9.022;2023-04-08T01:11:19;21.40;;;20.20;;
2622;SDS011;1321;48.690;9.022;2023-04-08T01:13:47;21.00;;;19.80;;
2622;SDS011;1321;48.690;9.022;2023-04-08T01:16:18;21.83;;;20.53;;
2622;SDS011;1321;48.690;9.022;2023-04-08T01:18:48;22.13;;;20.83;;
2622;SDS011;1321;48.690;9.022;2023-04-08T01:21:19;21.23;;;19.83;;
2622;SDS011;1321;48.690;9.022;2023-04-08T01:23:52;22.03;;;20.73;;
2622;SDS011;1321;48.690;9.022;2023-04-08T01:26:27;20.17;;;18.97;;
2622;SDS011;1321;48.690;9.022;2023-04-08T01:28:56;20.60;;;19.40;;
2622;SDS011;1321;48.690;9.022;2023-04-08T01:31:27;21.83;;;20.43;;
2622;SDS011;1321;48.690;9.022;2023-04-08T01:33:57;21.07;;;19.80;;
2622;SDS011;1321;48.690;9.022;2023-04-08T01:36:28;20.90;;;19.60;;
2622;SDS011;1321;48.690;9.022;2023-04-08T01:38:58;20.90;;;19.53;;
2622;SDS011;1321;48.690;9.022;2023-04-08T01:41:29;20.90;;;19.50;;
2622;SDS011;1321;48.690;9.022;2023-04-08T01:43:59;20.20;;;19.00;;
2622;SDS011;1321;48.690;9.022;2023-04-08T01:46:29;20.23;;;19.13;;
2622;SDS011;1321;48.690;9.022;2023-04-08T01:48:58;20.77;;;19.47;;
2622;SDS011;1321;48.690;9.022;2023-04-08T01:51:27;21.30;;;20.10;;
2622;SDS011;1321;48.690;9.022;2023-04-08T01:53:57;20.20;;;19.00;;
2622;SDS011;1321;48.690;9.022;2023-04-08T01:56:26;20.10;;;18.90;;
2622;SDS011;1321;48.690;9.022;2023-04-08T01:58:59;20.10;;;18.90;;
2622;SDS011;1321;48.690;9.022;2023-04-08T02:01:28;20.80;;;19.50;;
2622;SDS011;1321;48.690;9.022;2023-04-08T02:03:59;20.30;;;19.10;;
2622;SDS011;1321;48.690;9.022;2023-04-08T02:06:28;21.20;;;19.90;;
2622;SDS011;1321;48.690;9.022;2023-04-08T02:08:58;23.20;;;21.47;;
2622;SDS011;1321;48.690;9.022;2023-04-08T02:11:27;22.57;;;21.17;;
2622;SDS011;1321;48.690;9.022;2023-04-08T02:13:56;23.20;;;21.60;;
2622;SDS011;1321;48.690;9.022;2023-04-08T02:16:26;24.63;;;22.83;;
2622;SDS011;1321;48.690;9.022;2023-04-08T02:19:01;24.67;;;22.77;;
2622;SDS011;1321;48.690;9.022;2023-04-08T02:21:35;22.80;;;21.40;;
2622;SDS011;1321;48.690;9.022;2023-04-08T02:24:09;23.37;;;21.67;;
2622;SDS011;1321;48.690;9.022;2023-04-08T02:26:40;24.13;;;22.33;;
2622;SDS011;1321;48.690;9.022;2023-04-08T02:29:12;24.20;;;22.53;;
2622;SDS011;1321;48.690;9.022;2023-04-08T02:31:42;24.30;;;22.50;;
2622;SDS011;1321;48.690;9.022;2023-04-08T02:34:11;23.67;;;21.87;;
2622;SDS011;1321;48.690;9.022;2023-04-08T02:36:41;24.13;;;22.33;;
2622;SDS011;1321;48.690;9.022;2023-04-08T02:39:11;24.63;;;22.67;;
2622;SDS011;1321;48.690;9.022;2023-04-08T02:41:39;23.40;;;21.70;;
2622;SDS011;1321;48.690;9.022;2023-04-08T02:44:07;25.13;;;23.30;;
2622;SDS011;1321;48.690;9.022;2023-04-08T02:46:37;23.87;;;22.07;;
2622;SDS011;1321;48.690;9.022;2023-04-08T02:49:05;23.87;;;22.13;;
2622;SDS011;1321;48.690;9.022;2023-04-08T02:51:33;25.27;;;23.17;;
2622;SDS011;1321;48.690;9.022;2023-04-08T02:54:01;24.67;;;22.90;;
2622;SDS011;1321;48.690;9.022;2023-04-08T02:56:29;23.90;;;22.07;;
2622;SDS011;1321;48.690;9.022;2023-04-08T02:58:57;23.73;;;21.97;;
2622;SDS011;1321;48.690;9.022;2023-04-08T03:01:26;24.07;;;22.27;;
2622;SDS011;1321;48.690;9.022;2023-04-08T03:03:55;26.93;;;24.63;;
2622;SDS011;1321;48.690;9.022;2023-04-08T03:06:23;24.53;;;22.70;;
2622;SDS011;1321;48.690;9.022;2023-04-08T03:08:52;25.33;;;23.43;;
2622;SDS011;1321;48.690;9.022;2023-04-08T03:11:20;24.00;;;22.03;;
2622;SDS011;1321;48.690;9.022;2023-04-08T03:13:48;23.63;;;21.77;;
2622;SDS011;1321;48.690;9.022;2023-04-08T03:16:16;23.60;;;21.80;;
2622;SDS011;1321;48.690;9.022;2023-04-08T03:18:44;24.97;;;22.90;;
2622;SDS011;1321;48.690;9.022;2023-04-08T03:21:14;24.30;;;22.40;;
2622;SDS011;1321;48.690;9.022;2023-04-08T03:23:42;24.10;;;22.30;;
2622;SDS011;1321;48.690;9.022;2023-04-08T03:26:10;24.17;;;22.10;;
2622;SDS011;1321;48.690;9.022;2023-04-08T03:28:38;26.00;;;23.90;;
2622;SDS011;1321;48.690;9.022;2023-04-08T03:31:06;25.60;;;23.43;;
2622;SDS011;1321;48.690;9.022;2023-04-08T03:33:34;24.00;;;22.10;;
2622;SDS011;1321;48.690;9.022;2023-04-08T03:36:03;23.27;;;21.57;;
2622;SDS011;1321;48.690;9.022;2023-04-08T03:38:33;23.20;;;21.47;;
2622;SDS011;1321;48.690;9.022;2023-04-08T03:41:01;23.50;;;21.70;;
2622;SDS011;1321;48.690;9.022;2023-04-08T03:43:29;24.33;;;22.47;;
2622;SDS011;1321;48.690;9.022;2023-04-08T03:45:57;25.53;;;23.60;;
2622;SDS011;1321;48.690;9.022;2023-04-08T03:48:25;24.47;;;22.60;;
2622;SDS011;1321;48.690;9.022;2023-04-08T03:50:54;23.00;;;21.20;;
2622;SDS011;1321;48.690;9.022;2023-04-08T03:53:22;24.70;;;22.80;;
2622;SDS011;1321;48.690;9.022;2023-04-08T03:55:54;23.87;;;21.97;;
2622;SDS011;1321;48.690;9.022;2023-04-08T03:58:22;23.87;;;22.00;;
2622;SDS011;1321;48.690;9.022;2023-04-08T04:00:51;22.90;;;21.30;;
2622;SDS011;1321;48.690;9.022;2023-04-08T04:03:20;22.87;;;21.17;;
2622;SDS011;1321;48.690;9.022;2023-04-08T04:05:48;23.93;;;22.17;;
2622;SDS011;1321;48.690;9.022;2023-04-08T04:08:16;24.73;;;22.93;;
2622;SDS011;1321;48.690;9.022;2023-04-08T04:10:44;23.20;;;21.40;;
2622;SDS011;1321;48.690;9.022;2023-04-08T04:13:14;23.10;;;21.17;;
2622;SDS011;1321;48.690;9.022;2023-04-08T04:15:42;22.83;;;20.77;;
2622;SDS011;1321;48.690;9.022;2023-04-08T04:18:10;22.97;;;21.27;;
2622;SDS011;1321;48.690;9.022;2023-04-08T04:20:38;22.77;;;21.17;;
2622;SDS011;1321;48.690;9.022;2023-04-08T04:23:07;22.70;;;20.93;;
2622;SDS011;1321;48.690;9.022;2023-04-08T04:25:39;21.87;;;20.17;;
2622;SDS011;1321;48.690;9.022;2023-04-08T04:28:07;23.47;;;21.53;;
2622;SDS011;1321;48.690;9.022;2023-04-08T04:30:37;24.77;;;22.67;;
2622;SDS011;1321;48.690;9.022;2023-04-08T04:33:06;22.53;;;21.00;;
2622;SDS011;1321;48.690;9.022;2023-04-08T04:35:34;23.20;;;21.60;;
2622;SDS011;1321;48.690;9.022;2023-04-08T04:38:02;24.33;;;22.47;;
2622;SDS011;1321;48.690;9.022;2023-04-08T04:40:33;23.50;;;21.80;;
2622;SDS011;1321;48.690;9.022;2023-04-08T04:43:01;23.90;;;22.17;;
2622;SDS011;1321;48.690;9.022;2023-04-08T04:45:29;25.63;;;23.70;;
2622;SDS011;1321;48.690;9.022;2023-04-08T04:47:59;23.37;;;21.70;;
2622;SDS011;1321;48.690;9.022;2023-04-08T04:50:27;23.90;;;22.20;;
2622;SDS011;1321;48.690;9.022;2023-04-08T04:52:56;24.13;;;22.53;;
2622;SDS011;1321;48.690;9.022;2023-04-08T04:55:24;25.87;;;23.77;;
2622;SDS011;1321;48.690;9.022;2023-04-08T04:57:52;24.50;;;22.77;;
2622;SDS011;1321;48.690;9.022;2023-04-08T05:00:20;24.37;;;22.70;;
2622;SDS011;1321;48.690;9.022;2023-04-08T05:02:49;23.83;;;22.10;;
2622;SDS011;1321;48.690;9.022;2023-04-08T05:05:19;24.77;;;22.87;;
2622;SDS011;1321;48.690;9.022;2023-04-08T05:07:47;24.47;;;22.47;;
2622;SDS011;1321;48.690;9.022;2023-04-08T05:10:15;24.53;;;22.60;;
2622;SDS011;1321;48.690;9.022;2023-04-08T05:12:43;25.73;;;23.63;;
2622;SDS011;1321;48.690;9.022;2023-04-08T05:15:11;24.60;;;22.80;;
2622;SDS011;1321;48.690;9.022;2023-04-08T05:17:39;25.40;;;23.50;;
2622;SDS011;1321;48.690;9.022;2023-04-08T05:20:07;23.53;;;21.80;;
2622;SDS011;1321;48.690;9.022;2023-04-08T05:22:37;26.17;;;24.10;;
2622;SDS011;1321;48.690;9.022;2023-04-08T05:25:06;24.83;;;23.03;;
2622;SDS011;1321;48.690;9.022;2023-04-08T05:27:34;24.30;;;22.50;;
2622;SDS011;1321;48.690;9.022;2023-04-08T05:30:03;24.37;;;22.50;;
2622;SDS011;1321;48.690;9.022;2023-04-08T05:32:32;26.50;;;24.03;;
2622;SDS011;1321;48.690;9.022;2023-04-08T05:35:01;25.83;;;23.87;;
2622;SDS011;1321;48.690;9.022;2023-04-08T05:37:29;24.33;;;22.73;;
2622;SDS011;1321;48.690;9.022;2023-04-08T05:39:59;24.80;;;22.90;;
2622;SDS011;1321;48.690;9.022;2023-04-08T05:42:27;26.10;;;23.93;;
2622;SDS011;1321;48.690;9.022;2023-04-08T05:44:55;24.83;;;22.87;;
2622;SDS011;1321;48.690;9.022;2023-04-08T05:47:23;25.07;;;23.30;;
2622;SDS011;1321;48.690;9.022;2023-04-08T05:49:51;25.73;;;23.80;;
2622;SDS011;1321;48.690;9.022;2023-04-08T05:52:19;24.70;;;22.80;;
2622;SDS011;1321;48.690;9.022;2023-04-08T05:54:47;25.87;;;23.40;;
2622;SDS011;1321;48.690;9.022;2023-04-08T05:57:17;25.97;;;23.97;;
2622;SDS011;1321;48.690;9.022;2023-04-08T05:59:45;24.40;;;22.60;;
2622;SDS011;1321;48.690;9.022;2023-04-08T06:02:13;24.90;;;23.00;;
2622;SDS011;1321;48.690;9.022;2023-04-08T06:04:42;25.27;;;23.17;;
2622;SDS011;1321;48.690;9.022;2023-04-08T06:07:10;25.00;;;23.10;;
2622;SDS011;1321;48.690;9.022;2023-04-08T06:09:38;26.03;;;24.03;;
2622;SDS011;1321;48.690;9.022;2023-04-08T06:12:06;25.50;;;23.60;;
2622;SDS011;1321;48.690;9.022;2023-04-08T06:14:36;25.67;;;23.77;;
2622;SDS011;1321;48.690;9.022;2023-04-08T06:17:04;25.70;;;23.70;;
2622;SDS011;1321;48.690;9.022;2023-04-08T06:19:32;24.40;;;22.73;;
2622;SDS011;1321;48.690;9.022;2023-04-08T06:22:01;23.83;;;22.23;;
2622;SDS011;1321;48.690;9.022;2023-04-08T06:24:29;22.13;;;20.80;;
2622;SDS011;1321;48.690;9.022;2023-04-08T06:26:58;23.10;;;21.43;;
2622;SDS011;1321;48.690;9.022;2023-04-08T06:29:26;21.10;;;19.90;;
2622;SDS011;1321;48.690;9.022;2023-04-08T06:31:56;21.67;;;20.40;;
2622;SDS011;1321;48.690;9.022;2023-04-08T06:34:24;21.90;;;20.50;;
2622;SDS011;1321;48.690;9.022;2023-04-08T06:36:52;21.57;;;20.30;;
2622;SDS011;1321;48.690;9.022;2023-04-08T06:39:21;22.63;;;21.30;;
2622;SDS011;1321;48.690;9.022;2023-04-08T06:41:49;21.90;;;20.63;;
2622;SDS011;1321;48.690;9.022;2023-04-08T06:44:17;20.90;;;19.63;;
2622;SDS011;1321;48.690;9.022;2023-04-08T06:46:45;21.90;;;20.60;;
2622;SDS011;1321;48.690;9.022;2023-04-08T06:49:15;21.90;;;20.70;;
2622;SDS011;1321;48.690;9.022;2023-04-08T06:51:43;20.70;;;19.50;;
2622;SDS011;1321;48.690;9.022;2023-04-08T06:54:11;22.80;;;21.40;;
2622;SDS011;1321;48.690;9.022;2023-04-08T06:56:39;22.80;;;21.30;;
2622;SDS011;1321;48.690;9.022;2023-04-08T06:59:07;20.40;;;19.40;;
2622;SDS011;1321;48.690;9.022;2023-04-08T07:01:35;22.63;;;21.23;;
2622;SDS011;1321;48.690;9.022;2023-04-08T07:04:03;21.30;;;19.97;;
2622;SDS011;1321;48.690;9.022;2023-04-08T07:06:33;20.70;;;19.40;;
2622;SDS011;1321;48.690;9.022;2023-04-08T07:09:01;19.90;;;18.70;;
2622;SDS011;1321;48.690;9.022;2023-04-08T07:11:30;19.67;;;18.57;;
2622;SDS011;1321;48.690;9.022;2023-04-08T07:13:58;19.73;;;18.53;;
2622;SDS011;1321;48.690;9.022;2023-04-08T07:16:26;18.40;;;17.50;;
2622;SDS011;1321;48.690;9.022;2023-04-08T07:18:57;18.53;;;17.63;;
2622;SDS011;1321;48.690;9.022;2023-04-08T07:21:25;18.70;;;17.70;;
2622;SDS011;1321;48.690;9.022;2023-04-08T07:23:55;18.23;;;17.30;;
2622;SDS011;1321;48.690;9.022;2023-04-08T07:26:23;19.13;;;18.13;;
2622;SDS011;1321;48.690;9.022;2023-04-08T07:28:51;18.60;;;17.57;;
2622;SDS011;1321;48.690;9.022;2023-04-08T07:31:19;17.00;;;16.20;;
2622;SDS011;1321;48.690;9.022;2023-04-08T07:33:48;17.77;;;16.97;;
2622;SDS011;1321;48.690;9.022;2023-04-08T07:36:16;18.90;;;17.70;;
2622;SDS011;1321;48.690;9.022;2023-04-08T07:38:44;17.57;;;16.77;;
2622;SDS011;1321;48.690;9.022;2023-04-08T07:41:14;18.37;;;17.40;;
2622;SDS011;1321;48.690;9.022;2023-04-08T07:43:42;18.77;;;17.57;;
2622;SDS011;1321;48.690;9.022;2023-04-08T07:46:10;18.10;;;17.20;;
2622;SDS011;1321;48.690;9.022;2023-04-08T07:48:38;17.60;;;16.90;;
2622;SDS011;1321;48.690;9.022;2023-04-08T07:51:07;18.10;;;17.10;;
2622;SDS011;1321;48.690;9.022;2023-04-08T07:53:37;18.53;;;17.53;;
2622;SDS011;1321;48.690;9.022;2023-04-08T07:56:09;17.60;;;16.80;;
2622;SDS011;1321;48.690;9.022;2023-04-08T07:58:40;18.47;;;17.57;;
2622;SDS011;1321;48.690;9.022;2023-04-08T08:01:15;18.00;;;17.00;;
2622;SDS011;1321;48.690;9.022;2023-04-08T08:03:45;19.90;;;18.70;;
2622;SDS011;1321;48.690;9.022;2023-04-08T08:06:14;19.73;;;18.73;;
2622;SDS011;1321;48.690;9.022;2023-04-08T08:08:44;18.87;;;18.00;;
2622;SDS011;1321;48.690;9.022;2023-04-08T08:11:12;18.70;;;17.80;;
2622;SDS011;1321;48.690;9.022;2023-04-08T08:13:41;20.00;;;18.87;;
2622;SDS011;1321;48.690;9.022;2023-04-08T08:16:09;20.23;;;19.03;;
2622;SDS011;1321;48.690;9.022;2023-04-08T08:18:38;19.63;;;18.60;;
2622;SDS011;1321;48.690;9.022;2023-04-08T08:21:06;21.30;;;20.10;;
2622;SDS011;1321;48.690;9.022;2023-04-08T08:23:35;20.90;;;19.80;;
2622;SDS011;1321;48.690;9.022;2023-04-08T08:26:04;20.57;;;19.47;;
2622;SDS011;1321;48.690;9.022;2023-04-08T08:28:35;20.57;;;19.47;;
2622;SDS011;1321;48.690;9.022;2023-04-08T08:31:05;21.20;;;20.00;;
2622;SDS011;1321;48.690;9.022;2023-04-08T08:33:33;20.70;;;19.60;;
2622;SDS011;1321;48.690;9.022;2023-04-08T08:36:01;20.50;;;19.50;;
2622;SDS011;1321;48.690;9.022;2023-04-08T08:38:41;21.63;;;20.43;;
2622;SDS011;1321;48.690;9.022;2023-04-08T08:41:10;21.97;;;20.63;;
2622;SDS011;1321;48.690;9.022;2023-04-08T08:43:38;20.90;;;19.80;;
2622;SDS011;1321;48.690;9.022;2023-04-08T08:46:09;21.80;;;20.40;;
2622;SDS011;1321;48.690;9.022;2023-04-08T08:48:37;21.17;;;19.97;;
2622;SDS011;1321;48.690;9.022;2023-04-08T08:51:07;21.90;;;20.50;;
2622;SDS011;1321;48.690;9.022;2023-04-08T08:53:35;23.50;;;22.10;;
2622;SDS011;1321;48.690;9.022;2023-04-08T08:56:05;21.67;;;20.57;;
2622;SDS011;1321;48.690;9.022;2023-04-08T08:58:38;21.73;;;20.60;;
2622;SDS011;1321;48.690;9.022;2023-04-08T09:04:05;22.73;;;21.43;;
2622;SDS011;1321;48.690;9.022;2023-04-08T09:06:35;22.10;;;20.67;;
2622;SDS011;1321;48.690;9.022;2023-04-08T09:09:03;22.80;;;21.50;;
2622;SDS011;1321;48.690;9.022;2023-04-08T09:11:36;23.60;;;21.90;;
2622;SDS011;1321;48.690;9.022;2023-04-08T09:14:16;22.77;;;21.37;;
2622;SDS011;1321;48.690;9.022;2023-04-08T09:16:46;23.13;;;21.73;;
2622;SDS011;1321;48.690;9.022;2023-04-08T09:19:15;22.20;;;20.90;;
2622;SDS011;1321;48.690;9.022;2023-04-08T09:21:43;23.03;;;21.23;;
2622;SDS011;1321;48.690;9.022;2023-04-08T09:24:26;24.03;;;22.07;;
2622;SDS011;1321;48.690;9.022;2023-04-08T09:26:55;22.10;;;20.77;;
2622;SDS011;1321;48.690;9.022;2023-04-08T09:29:23;22.17;;;20.77;;
2622;SDS011;1321;48.690;9.022;2023-04-08T09:32:00;23.33;;;22.03;;
2622;SDS011;1321;48.690;9.022;2023-04-08T09:34:29;22.67;;;21.37;;
2622;SDS011;1321;48.690;9.022;2023-04-08T09:36:59;22.83;;;21.47;;
2622;SDS011;1321;48.690;9.022;2023-04-08T09:39:28;22.57;;;21.30;;
2622;SDS011;1321;48.690;9.022;2023-04-08T09:41:57;23.10;;;21.70;;
2622;SDS011;1321;48.690;9.022;2023-04-08T09:44:28;21.20;;;20.00;;
2622;SDS011;1321;48.690;9.022;2023-04-08T09:47:00;23.20;;;21.90;;
2622;SDS011;1321;48.690;9.022;2023-04-08T09:49:36;22.90;;;21.30;;
2622;SDS011;1321;48.690;9.022;2023-04-08T09:52:12;23.60;;;22.13;;
2622;SDS011;1321;48.690;9.022;2023-04-08T09:54:47;22.70;;;21.20;;
2622;SDS011;1321;48.690;9.022;2023-04-08T09:57:22;22.53;;;21.13;;
2622;SDS011;1321;48.690;9.022;2023-04-08T09:59:56;21.50;;;20.20;;
2622;SDS011;1321;48.690;9.022;2023-04-08T10:02:39;21.03;;;19.70;;
2622;SDS011;1321;48.690;9.022;2023-04-08T10:05:25;21.57;;;20.17;;
2622;SDS011;1321;48.690;9.022;2023-04-08T10:07:58;20.10;;;18.90;;
2622;SDS011;1321;48.690;9.022;2023-04-08T10:10:27;23.20;;;21.73;;
2622;SDS011;1321;48.690;9.022;2023-04-08T10:12:55;20.67;;;19.47;;
2622;SDS011;1321;48.690;9.022;2023-04-08T10:15:25;20.73;;;19.40;;
2622;SDS011;1321;48.690;9.022;2023-04-08T10:18:28;20.70;;;19.40;;
2622;SDS011;1321;48.690;9.022;2023-04-08T10:20:58;21.70;;;20.30;;
2622;SDS011;1321;48.690;9.022;2023-04-08T10:26:34;21.10;;;19.90;;
2622;SDS011;1321;48.690;9.022;2023-04-08T10:31:57;20.90;;;19.50;;
2622;SDS011;1321;48.690;9.022;2023-04-08T10:34:28;21.70;;;20.20;;
2622;SDS011;1321;48.690;9.022;2023-04-08T10:36:56;21.37;;;19.87;;
2622;SDS011;1321;48.690;9.022;2023-04-08T10:39:29;21.83;;;20.40;;
2622;SDS011;1321;48.690;9.022;2023-04-08T10:41:57;21.40;;;19.80;;
2622;SDS011;1321;48.690;9.022;2023-04-08T10:44:29;20.30;;;19.10;;
2622;SDS011;1321;48.690;9.022;2023-04-08T10:46:57;21.53;;;20.13;;
2622;SDS011;1321;48.690;9.022;2023-04-08T10:49:32;21.00;;;19.67;;
2622;SDS011;1321;48.690;9.022;2023-04-08T10:52:05;21.20;;;19.87;;
2622;SDS011;1321;48.690;9.022;2023-04-08T10:54:35;21.37;;;19.70;;
2622;SDS011;1321;48.690;9.022;2023-04-08T10:57:06;21.20;;;19.63;;
2622;SDS011;1321;48.690;9.022;2023-04-08T10:59:34;20.80;;;19.40;;
2622;SDS011;1321;48.690;9.022;2023-04-08T11:02:02;22.13;;;20.90;;
2622;SDS011;1321;48.690;9.022;2023-04-08T11:04:31;20.97;;;19.57;;
2622;SDS011;1321;48.690;9.022;2023-04-08T11:07:00;21.30;;;20.00;;
2622;SDS011;1321;48.690;9.022;2023-04-08T11:09:32;21.60;;;20.20;;
2622;SDS011;1321;48.690;9.022;2023-04-08T11:12:01;20.00;;;18.80;;
2622;SDS011;1321;48.690;9.022;2023-04-08T11:14:29;21.20;;;19.80;;
2622;SDS011;1321;48.690;9.022;2023-04-08T11:16:58;20.57;;;19.30;;
2622;SDS011;1321;48.690;9.022;2023-04-08T11:19:27;21.90;;;20.10;;
2622;SDS011;1321;48.690;9.022;2023-04-08T11:21:57;21.70;;;20.40;;
2622;SDS011;1321;48.690;9.022;2023-04-08T11:24:25;21.07;;;19.77;;
2622;SDS011;1321;48.690;9.022;2023-04-08T11:26:54;20.83;;;19.50;;
2622;SDS011;1321;48.690;9.022;2023-04-08T11:29:22;21.80;;;20.30;;
2622;SDS011;1321;48.690;9.022;2023-04-08T11:31:53;22.10;;;20.60;;
2622;SDS011;1321;48.690;9.022;2023-04-08T11:34:22;20.40;;;19.10;;
2622;SDS011;1321;48.690;9.022;2023-04-08T11:36:51;21.40;;;19.90;;
2622;SDS011;1321;48.690;9.022;2023-04-08T11:39:22;22.17;;;20.67;;
2622;SDS011;1321;48.690;9.022;2023-04-08T11:41:51;21.20;;;19.80;;
2622;SDS011;1321;48.690;9.022;2023-04-08T11:44:28;21.00;;;19.60;;
2622;SDS011;1321;48.690;9.022;2023-04-08T11:46:57;21.63;;;20.20;;
2622;SDS011;1321;48.690;9.022;2023-04-08T11:49:27;20.50;;;19.20;;
2622;SDS011;1321;48.690;9.022;2023-04-08T11:52:11;22.00;;;20.60;;
2622;SDS011;1321;48.690;9.022;2023-04-08T11:54:41;21.63;;;20.07;;
2622;SDS011;1321;48.690;9.022;2023-04-08T11:57:09;21.60;;;20.37;;
2622;SDS011;1321;48.690;9.022;2023-04-08T11:59:38;22.70;;;20.90;;
2622;SDS011;1321;48.690;9.022;2023-04-08T12:02:06;22.30;;;20.90;;
2622;SDS011;1321;48.690;9.022;2023-04-08T12:04:35;19.97;;;18.70;;
2622;SDS011;1321;48.690;9.022;2023-04-08T12:07:04;20.20;;;18.90;;
2622;SDS011;1321;48.690;9.022;2023-04-08T12:09:32;20.53;;;19.10;;
2622;SDS011;1321;48.690;9.022;2023-04-08T12:12:01;21.17;;;19.70;;
2622;SDS011;1321;48.690;9.022;2023-04-08T12:14:29;20.50;;;19.10;;
2622;SDS011;1321;48.690;9.022;2023-04-08T12:16:57;19.60;;;18.40;;
2622;SDS011;1321;48.690;9.022;2023-04-08T12:19:26;19.93;;;18.63;;
2622;SDS011;1321;48.690;9.022;2023-04-08T12:21:54;21.33;;;19.90;;
2622;SDS011;1321;48.690;9.022;2023-04-08T12:24:22;20.13;;;18.93;;
2622;SDS011;1321;48.690;9.022;2023-04-08T12:26:52;20.27;;;19.00;;
2622;SDS011;1321;48.690;9.022;2023-04-08T12:29:21;19.83;;;18.53;;
2622;SDS011;1321;48.690;9.022;2023-04-08T12:31:49;18.93;;;17.73;;
2622;SDS011;1321;48.690;9.022;2023-04-08T12:34:18;20.00;;;18.70;;
2622;SDS011;1321;48.690;9.022;2023-04-08T12:36:46;19.53;;;18.23;;
2622;SDS011;1321;48.690;9.022;2023-04-08T12:39:15;18.87;;;17.50;;
2622;SDS011;1321;48.690;9.022;2023-04-08T12:41:43;18.40;;;17.10;;
2622;SDS011;1321;48.690;9.022;2023-04-08T12:44:11;19.30;;;17.97;;
2622;SDS011;1321;48.690;9.022;2023-04-08T12:46:41;18.83;;;17.23;;
2622;SDS011;1321;48.690;9.022;2023-04-08T12:49:09;18.83;;;17.27;;
2622;SDS011;1321;48.690;9.022;2023-04-08T12:51:38;18.23;;;17.00;;
2622;SDS011;1321;48.690;9.022;2023-04-08T12:54:06;17.70;;;16.70;;
2622;SDS011;1321;48.690;9.022;2023-04-08T12:56:35;18.10;;;16.90;;
2622;SDS011;1321;48.690;9.022;2023-04-08T12:59:04;19.37;;;18.17;;
2622;SDS011;1321;48.690;9.022;2023-04-08T13:01:32;18.00;;;16.80;;
2622;SDS011;1321;48.690;9.022;2023-04-08T13:04:02;19.33;;;18.00;;
2622;SDS011;1321;48.690;9.022;2023-04-08T13:06:31;18.97;;;17.57;;
2622;SDS011;1321;48.690;9.022;2023-04-08T13:08:59;19.87;;;18.33;;
2622;SDS011;1321;48.690;9.022;2023-04-08T13:11:27;18.47;;;17.33;;
2622;SDS011;1321;48.690;9.022;2023-04-08T13:13:55;20.30;;;18.70;;
2622;SDS011;1321;48.690;9.022;2023-04-08T13:16:23;19.33;;;18.03;;
2622;SDS011;1321;48.690;9.022;2023-04-08T13:18:52;20.30;;;18.73;;
2622;SDS011;1321;48.690;9.022;2023-04-08T13:21:22;19.63;;;18.40;;
2622;SDS011;1321;48.690;9.022;2023-04-08T13:23:51;19.20;;;17.83;;
2622;SDS011;1321;48.690;9.022;2023-04-08T13:26:19;19.47;;;18.10;;
2622;SDS011;1321;48.690;9.022;2023-04-08T13:28:47;25.03;;;22.83;;
2622;SDS011;1321;48.690;9.022;2023-04-08T13:31:23;20.80;;;19.40;;
2622;SDS011;1321;48.690;9.022;2023-04-08T13:33:51;18.87;;;17.57;;
2622;SDS011;1321;48.690;9.022;2023-04-08T13:36:24;18.87;;;17.67;;
2622;SDS011;1321;48.690;9.022;2023-04-08T13:38:53;18.50;;;17.30;;
2622;SDS011;1321;48.690;9.022;2023-04-08T13:41:21;19.43;;;18.07;;
2622;SDS011;1321;48.690;9.022;2023-04-08T13:43:51;19.07;;;17.77;;
2622;SDS011;1321;48.690;9.022;2023-04-08T13:46:19;18.90;;;17.57;;
2622;SDS011;1321;48.690;9.022;2023-04-08T13:48:47;20.57;;;19.17;;
2622;SDS011;1321;48.690;9.022;2023-04-08T13:51:15;18.93;;;17.73;;
2622;SDS011;1321;48.690;9.022;2023-04-08T13:53:45;19.13;;;17.63;;
2622;SDS011;1321;48.690;9.022;2023-04-08T13:56:13;19.20;;;17.90;;
2622;SDS011;1321;48.690;9.022;2023-04-08T13:58:41;18.10;;;16.80;;
2622;SDS011;1321;48.690;9.022;2023-04-08T14:01:15;18.33;;;17.13;;
2622;SDS011;1321;48.690;9.022;2023-04-08T14:03:43;18.63;;;17.40;;
2622;SDS011;1321;48.690;9.022;2023-04-08T14:06:11;18.20;;;17.00;;
2622;SDS011;1321;48.690;9.022;2023-04-08T14:08:40;19.57;;;18.07;;
2622;SDS011;1321;48.690;9.022;2023-04-08T14:11:09;18.27;;;17.07;;
2622;SDS011;1321;48.690;9.022;2023-04-08T14:13:38;18.57;;;17.27;;
2622;SDS011;1321;48.690;9.022;2023-04-08T14:16:06;18.87;;;17.50;;
2622;SDS011;1321;48.690;9.022;2023-04-08T14:18:34;18.23;;;17.13;;
2622;SDS011;1321;48.690;9.022;2023-04-08T14:21:03;18.57;;;17.37;;
2622;SDS011;1321;48.690;9.022;2023-04-08T14:23:32;17.90;;;16.80;;
2622;SDS011;1321;48.690;9.022;2023-04-08T14:26:01;18.50;;;17.43;;
2622;SDS011;1321;48.690;9.022;2023-04-08T14:28:30;17.83;;;16.70;;
2622;SDS011;1321;48.690;9.022;2023-04-08T14:30:58;17.83;;;16.43;;
2622;SDS011;1321;48.690;9.022;2023-04-08T14:33:29;18.37;;;17.10;;
2622;SDS011;1321;48.690;9.022;2023-04-08T14:35:57;18.87;;;17.37;;
2622;SDS011;1321;48.690;9.022;2023-04-08T14:38:26;19.47;;;17.83;;
2622;SDS011;1321;48.690;9.022;2023-04-08T14:40:54;17.93;;;16.60;;
2622;SDS011;1321;48.690;9.022;2023-04-08T14:43:22;19.47;;;18.07;;
2622;SDS011;1321;48.690;9.022;2023-04-08T14:45:51;17.80;;;16.70;;
2622;SDS011;1321;48.690;9.022;2023-04-08T14:48:20;18.60;;;17.40;;
2622;SDS011;1321;48.690;9.022;2023-04-08T14:50:51;18.67;;;17.37;;
2622;SDS011;1321;48.690;9.022;2023-04-08T14:53:19;18.87;;;17.50;;
2622;SDS011;1321;48.690;9.022;2023-04-08T14:55:47;18.97;;;17.37;;
2622;SDS011;1321;48.690;9.022;2023-04-08T14:58:15;17.80;;;16.60;;
2622;SDS011;1321;48.690;9.022;2023-04-08T15:00:45;18.20;;;17.03;;
2622;SDS011;1321;48.690;9.022;2023-04-08T15:03:14;17.90;;;16.80;;
2622;SDS011;1321;48.690;9.022;2023-04-08T15:05:44;18.17;;;16.90;;
2622;SDS011;1321;48.690;9.022;2023-04-08T15:08:12;48.83;;;28.00;;
2622;SDS011;1321;48.690;9.022;2023-04-08T15:10:41;20.53;;;18.57;;